Time;durP1;ratioP1;P1;durP2;ratioP2;P2;SDS_P1;SDS_P2;PMS_P1;PMS_P2;Temp;Humidity;BMP_temperature;BMP_pressure;BME280_temperature;BME280_humidity;BME280_pressure;Samples;Min_cycle;Max_cycle;Signal;HPM_P1;HPM_P2
2022/05/27 00:01:24;;;;;;;1.83;1.70;;;18.40;90.70;;;19.00;nan;101161.13;4978500;28;21037;-69
2022/05/27 00:03:51;;;;;;;1.73;1.60;;;18.30;90.90;;;19.02;nan;101163.59;4990273;28;20605;-69
2022/05/27 00:06:19;;;;;;;3.13;1.87;;;18.30;91.00;;;18.97;nan;101166.75;4990123;28;21219;-67
2022/05/27 00:08:46;;;;;;;2.00;1.90;;;18.30;91.20;;;18.97;nan;101165.91;4989114;28;21230;-65
2022/05/27 00:11:14;;;;;;;2.67;1.87;;;18.30;91.30;;;18.95;nan;101165.22;4992814;28;20636;-68
2022/05/27 00:13:42;;;;;;;1.80;1.70;;;18.30;91.40;;;19.00;nan;101162.94;4988223;28;20634;-67
2022/05/27 00:16:09;;;;;;;1.37;1.33;;;18.30;91.40;;;18.97;nan;101158.81;4992031;28;20626;-67
2022/05/27 00:18:36;;;;;;;1.60;1.50;;;18.30;91.50;;;18.93;nan;101159.25;4991489;28;20650;-67
2022/05/27 00:21:04;;;;;;;1.83;1.73;;;18.20;91.70;;;18.89;nan;101152.59;4991506;28;20642;-66
2022/05/27 00:23:32;;;;;;;1.87;1.77;;;18.20;91.90;;;18.86;nan;101158.19;4974428;28;21170;-68
2022/05/27 00:25:59;;;;;;;5.43;1.80;;;18.10;92.00;;;18.84;nan;101155.69;4972225;28;20696;-65
2022/05/27 00:28:26;;;;;;;2.33;1.53;;;18.10;92.30;;;18.83;nan;101142.59;4972205;28;21253;-68
2022/05/27 00:30:53;;;;;;;1.60;1.50;;;18.10;92.40;;;18.86;nan;101155.53;4991163;28;20674;-70
2022/05/27 00:33:21;;;;;;;1.80;1.70;;;18.20;92.50;;;18.86;nan;101145.81;4990478;28;20607;-68
2022/05/27 00:35:49;;;;;;;2.20;2.00;;;18.20;92.50;;;18.78;nan;101137.81;4974113;28;20638;-67
2022/05/27 00:38:16;;;;;;;2.73;2.00;;;18.10;92.80;;;18.80;nan;101141.13;4991484;28;20654;-68
2022/05/27 00:40:49;;;;;;;2.73;2.40;;;18.10;92.90;;;18.82;nan;101138.31;4990933;28;20626;-67
2022/05/27 00:43:16;;;;;;;1.67;1.57;;;18.10;93.00;;;18.87;nan;101131.59;4989945;28;20696;-69
2022/05/27 00:45:52;;;;;;;1.73;1.63;;;18.20;93.10;;;18.93;nan;101125.69;4990596;28;21214;-67
2022/05/27 00:48:23;;;;;;;1.40;1.30;;;18.30;92.80;;;18.88;nan;101140.34;4973232;28;20668;-67
2022/05/27 00:50:52;;;;;;;4.90;1.73;;;18.20;93.10;;;18.83;nan;101137.31;4958098;28;20673;-65
2022/05/27 00:53:27;;;;;;;2.73;1.40;;;18.20;93.30;;;18.75;nan;101134.59;4991599;28;20622;-67
2022/05/27 00:55:58;;;;;;;1.77;1.67;;;18.10;93.70;;;18.69;nan;101137.84;4960511;28;20635;-68
2022/05/27 00:58:36;;;;;;;1.40;1.40;;;18.00;94.00;;;18.74;nan;101125.03;4956885;28;20999;-67
2022/05/27 01:01:03;;;;;;;1.50;1.40;;;18.10;93.90;;;18.72;nan;101129.63;4974068;28;20708;-68
2022/05/27 01:03:32;;;;;;;1.43;1.33;;;18.00;94.20;;;18.72;nan;101134.94;4976590;28;20642;-67
2022/05/27 01:05:59;;;;;;;2.50;1.60;;;18.00;94.20;;;18.69;nan;101128.13;4975316;28;20642;-66
2022/05/27 01:08:29;;;;;;;1.37;1.30;;;18.00;94.40;;;18.62;nan;101119.13;4992320;28;20689;-68
2022/05/27 01:11:53;;;;;;;1.37;1.37;;;18.00;94.70;;;18.58;nan;101126.53;4992675;28;20696;-70
2022/05/27 01:14:59;;;;;;;1.60;1.60;;;17.90;94.90;;;18.58;nan;101115.13;4950340;28;20697;-68
2022/05/27 01:17:53;;;;;;;2.33;2.00;;;17.90;95.10;;;18.53;nan;101118.22;4974525;28;20655;-67
2022/05/27 01:20:46;;;;;;;1.83;1.73;;;17.90;95.50;;;18.50;nan;101107.94;4958799;28;20982;-69
2022/05/27 01:23:50;;;;;;;1.33;1.30;;;17.90;95.70;;;18.47;nan;101113.53;4994772;28;21051;-67
2022/05/27 01:26:58;;;;;;;2.63;1.70;;;17.80;95.80;;;18.49;nan;101116.00;4974533;28;20642;-67
2022/05/27 01:29:58;;;;;;;1.90;1.80;;;17.80;96.00;;;18.49;nan;101116.84;4991946;28;20670;-68
2022/05/27 01:32:45;;;;;;;2.30;1.77;;;17.80;96.10;;;18.46;nan;101117.13;4993063;28;20634;-67
2022/05/27 01:35:26;;;;;;;1.50;1.43;;;17.80;96.40;;;18.48;nan;101112.53;4986930;28;21022;-67
2022/05/27 01:38:24;;;;;;;1.63;1.53;;;17.80;96.60;;;18.44;nan;101110.34;4975045;28;20653;-69
2022/05/27 01:41:11;;;;;;;1.53;1.43;;;17.80;96.70;;;18.48;nan;101104.59;4980267;28;20643;-64
2022/05/27 01:43:52;;;;;;;1.77;1.67;;;17.80;96.70;;;18.48;nan;101106.44;4956432;28;20635;-68
2022/05/27 01:46:33;;;;;;;1.50;1.40;;;17.80;97.00;;;18.41;nan;101106.16;4957530;28;20634;-68
2022/05/27 01:49:25;;;;;;;1.70;1.60;;;17.80;97.10;;;18.36;nan;101097.84;4974775;28;20693;-68
2022/05/27 01:52:29;;;;;;;1.60;1.60;;;17.70;97.40;;;18.34;nan;101097.16;4993513;28;20629;-66
2022/05/27 01:55:27;;;;;;;1.90;1.70;;;17.70;97.60;;;18.29;nan;101093.31;4974421;28;21326;-69
2022/05/27 01:58:11;;;;;;;1.53;1.47;;;17.60;98.00;;;18.25;nan;101090.13;4992725;28;20712;-68
2022/05/27 02:00:41;;;;;;;1.60;1.50;;;17.60;98.20;;;18.24;nan;101095.56;4974431;28;20645;-68
2022/05/27 02:03:12;;;;;;;1.47;1.47;;;17.60;98.40;;;18.19;nan;101103.09;4966910;28;20642;-68
2022/05/27 02:06:04;;;;;;;1.70;1.60;;;17.60;98.60;;;18.11;nan;101101.19;4955914;28;20666;-70
2022/05/27 02:08:39;;;;;;;3.90;1.90;;;17.50;98.90;;;18.08;nan;101096.19;4979852;28;20678;-67
2022/05/27 02:11:22;;;;;;;1.50;1.40;;;17.50;99.20;;;18.14;nan;101100.91;4972158;28;20678;-68
2022/05/27 02:14:19;;;;;;;1.77;1.50;;;17.50;99.30;;;18.15;nan;101110.47;4964607;28;22498;-67
2022/05/27 02:16:52;;;;;;;1.70;1.60;;;17.50;99.40;;;18.21;nan;101107.25;4981233;28;20638;-69
2022/05/27 02:19:31;;;;;;;1.63;1.57;;;17.60;99.40;;;18.26;nan;101110.28;4974594;28;20691;-68
2022/05/27 02:22:04;;;;;;;4.87;2.20;;;17.70;99.40;;;18.36;nan;101112.84;4974752;28;20618;-71
2022/05/27 02:24:46;;;;;;;3.47;1.73;;;17.80;99.10;;;18.39;nan;101105.47;4991045;28;20635;-68
2022/05/27 02:27:22;;;;;;;2.90;1.90;;;17.80;99.10;;;18.35;nan;101098.00;4993562;28;20633;-67
2022/05/27 02:29:53;;;;;;;2.00;1.90;;;17.70;99.30;;;18.30;nan;101106.38;4973960;28;20670;-69
2022/05/27 02:32:37;;;;;;;2.13;1.80;;;17.70;99.60;;;18.27;nan;101108.50;4974790;28;20622;-69
2022/05/27 02:35:31;;;;;;;1.87;1.77;;;17.70;99.80;;;18.24;nan;101106.97;4966635;28;21095;-67
2022/05/27 02:38:00;;;;;;;6.63;1.93;;;17.60;99.90;;;18.30;nan;101103.72;4955142;28;20659;-68
2022/05/27 02:40:48;;;;;;;1.90;1.80;;;17.70;99.80;;;18.31;nan;101105.41;4968149;28;20644;-68
2022/05/27 02:44:06;;;;;;;2.33;1.77;;;17.70;99.80;;;18.23;nan;101094.72;4957019;28;21072;-68
2022/05/27 02:46:55;;;;;;;5.83;2.33;;;17.70;99.90;;;18.20;nan;101091.56;4966162;28;20642;-68
2022/05/27 02:49:27;;;;;;;1.97;1.87;;;17.60;99.90;;;18.08;nan;101090.91;4990250;28;20646;-69
2022/05/27 02:52:15;;;;;;;1.93;1.80;;;17.50;99.90;;;17.97;nan;101093.78;4974671;28;20649;-65
2022/05/27 02:55:13;;;;;;;1.77;1.63;;;17.40;99.90;;;17.91;nan;101096.97;4991996;28;20996;-70
2022/05/27 02:57:52;;;;;;;2.80;2.10;;;17.30;99.90;;;17.94;nan;101103.78;4980206;28;20792;-67
2022/05/27 03:00:27;;;;;;;4.37;2.20;;;17.30;99.90;;;17.91;nan;101110.19;4973132;28;20634;-68
2022/05/27 03:02:59;;;;;;;1.53;1.43;;;17.30;99.90;;;17.90;nan;101103.25;4990338;28;20640;-65
2022/05/27 03:05:43;;;;;;;3.37;2.30;;;17.30;99.90;;;17.88;nan;101102.56;4991301;28;20642;-68
2022/05/27 03:08:33;;;;;;;2.50;2.30;;;17.30;99.90;;;18.00;nan;101108.47;4990500;28;21068;-68
2022/05/27 03:11:15;;;;;;;2.03;1.93;;;17.40;99.90;;;17.98;nan;101111.25;4974334;28;20760;-68
2022/05/27 03:14:13;;;;;;;2.60;1.87;;;17.40;99.90;;;17.96;nan;101107.94;4985676;28;20634;-68
2022/05/27 03:17:27;;;;;;;4.23;2.57;;;17.40;99.90;;;17.98;nan;101111.25;4987056;28;20641;-68
2022/05/27 03:20:26;;;;;;;2.70;2.50;;;17.40;99.90;;;18.03;nan;101103.75;4990586;28;20630;-67
2022/05/27 03:23:13;;;;;;;2.60;2.40;;;17.40;99.90;;;18.07;nan;101114.84;4956137;28;20612;-67
2022/05/27 03:25:54;;;;;;;2.60;2.27;;;17.50;99.90;;;18.05;nan;101115.00;4970078;28;21167;-68
2022/05/27 03:28:48;;;;;;;2.30;2.20;;;17.40;99.90;;;18.04;nan;101110.69;4990652;28;21270;-69
2022/05/27 03:31:31;;;;;;;3.07;2.43;;;17.40;99.90;;;18.07;nan;101091.91;4954254;28;20666;-69
2022/05/27 03:34:10;;;;;;;2.70;2.50;;;17.50;99.90;;;18.06;nan;101100.00;4969686;28;20626;-69
2022/05/27 03:36:46;;;;;;;2.30;2.10;;;17.50;99.90;;;18.03;nan;101097.63;4990862;28;20683;-68
2022/05/27 03:39:58;;;;;;;2.37;2.17;;;17.50;99.90;;;17.93;nan;101100.31;4990487;28;20630;-67
2022/05/27 03:42:27;;;;;;;2.67;2.47;;;17.30;99.90;;;17.87;nan;101108.81;4977501;28;20642;-67
2022/05/27 03:45:11;;;;;;;3.60;3.03;;;17.30;99.90;;;17.82;nan;101113.72;4992415;28;20626;-67
2022/05/27 03:47:40;;;;;;;2.60;2.40;;;17.20;99.90;;;17.84;nan;101112.56;4990565;28;21061;-68
2022/05/27 03:50:16;;;;;;;2.57;2.37;;;17.20;99.90;;;17.79;nan;101106.91;4972161;28;21038;-67
2022/05/27 03:52:47;;;;;;;3.60;3.30;;;17.20;99.90;;;17.75;nan;101109.97;4990895;28;20635;-67
2022/05/27 03:55:18;;;;;;;2.80;2.63;;;17.10;99.90;;;17.71;nan;101117.38;4974115;28;20634;-67
2022/05/27 03:57:45;;;;;;;3.40;2.53;;;17.10;99.90;;;17.80;nan;101120.94;4991615;28;20658;-68
2022/05/27 04:00:13;;;;;;;4.23;2.77;;;17.20;99.90;;;17.79;nan;101133.31;4989841;28;20649;-69
2022/05/27 04:02:42;;;;;;;3.20;2.90;;;17.20;99.90;;;17.82;nan;101127.72;4989596;28;20679;-67
2022/05/27 04:05:15;;;;;;;2.57;2.37;;;17.20;99.90;;;17.89;nan;101127.97;4972992;28;20625;-68
2022/05/27 04:07:44;;;;;;;4.33;2.70;;;17.30;99.90;;;17.97;nan;101135.19;5007771;23;20658;-65
2022/05/27 04:10:11;;;;;;;2.93;2.73;;;17.40;99.90;;;18.04;nan;101128.34;4991240;28;21053;-65
2022/05/27 04:12:38;;;;;;;3.30;3.00;;;17.50;99.90;;;17.98;nan;101132.38;5021747;28;20995;-65
2022/05/27 04:15:06;;;;;;;2.50;2.30;;;17.40;99.90;;;17.94;nan;101124.91;4996436;28;20646;-65
2022/05/27 04:17:34;;;;;;;2.40;2.30;;;17.40;99.90;;;18.02;nan;101115.28;4990751;28;20633;-67
2022/05/27 04:20:10;;;;;;;3.13;2.93;;;17.40;99.90;;;18.01;nan;101126.84;4989655;28;20634;-68
2022/05/27 04:22:38;;;;;;;4.67;2.73;;;17.40;99.90;;;18.03;nan;101126.69;4972991;28;20626;-66
2022/05/27 04:25:13;;;;;;;5.60;2.37;;;17.40;99.90;;;18.11;nan;101132.03;4990255;28;20642;-68
2022/05/27 04:27:40;;;;;;;3.17;2.97;;;17.50;99.90;;;18.11;nan;101127.59;4982224;28;20666;-66
2022/05/27 04:30:09;;;;;;;2.50;2.40;;;17.50;99.90;;;18.17;nan;101127.00;4989078;28;21043;-66
2022/05/27 04:32:37;;;;;;;3.03;2.80;;;17.60;99.90;;;18.19;nan;101125.06;4992939;28;20641;-65
2022/05/27 04:35:05;;;;;;;3.13;2.27;;;17.60;99.90;;;18.16;nan;101140.38;4993328;28;20634;-67
2022/05/27 04:37:32;;;;;;;3.37;3.07;;;17.60;99.90;;;18.15;nan;101143.97;4976725;28;21040;-66
2022/05/27 04:39:59;;;;;;;4.03;3.03;;;17.50;99.90;;;18.22;nan;101150.34;4992440;28;20626;-69
2022/05/27 04:42:28;;;;;;;2.30;2.20;;;17.60;99.90;;;18.23;nan;101144.09;4993568;28;21198;-66
2022/05/27 04:44:56;;;;;;;3.27;2.97;;;17.70;99.90;;;18.24;nan;101143.94;4975612;28;20979;-66
2022/05/27 04:47:24;;;;;;;3.10;2.73;;;17.70;99.90;;;18.09;nan;101141.94;4974111;28;20665;-65
2022/05/27 04:49:51;;;;;;;6.47;2.60;;;17.50;99.90;;;18.14;nan;101137.06;4992488;28;21242;-66
2022/05/27 04:52:19;;;;;;;3.77;3.07;;;17.50;99.90;;;18.16;nan;101140.38;4993548;28;21246;-66
2022/05/27 04:54:47;;;;;;;2.27;2.10;;;17.50;99.90;;;18.22;nan;101145.91;4977304;28;21178;-66
2022/05/27 04:57:22;;;;;;;2.90;2.60;;;17.60;99.90;;;18.18;nan;101141.91;4995359;28;20614;-66
2022/05/27 04:59:49;;;;;;;4.20;2.73;;;17.60;99.90;;;18.26;nan;101144.63;4958207;28;20618;-65
2022/05/27 05:02:20;;;;;;;4.70;3.17;;;17.70;99.90;;;18.24;nan;101130.75;4990344;28;20645;-66
2022/05/27 05:04:52;;;;;;;2.20;2.07;;;17.60;99.90;;;18.16;nan;101141.22;4977186;28;20645;-68
2022/05/27 05:07:23;;;;;;;3.67;3.30;;;17.60;99.90;;;18.13;nan;101146.78;4994320;28;20630;-65
2022/05/27 05:09:50;;;;;;;3.57;2.60;;;17.50;99.90;;;18.18;nan;101151.63;4970008;28;20673;-65
2022/05/27 05:12:22;;;;;;;3.50;3.03;;;17.60;99.90;;;18.18;nan;101144.53;4995793;28;21420;-65
2022/05/27 05:14:51;;;;;;;3.07;2.87;;;17.60;99.90;;;18.20;nan;101142.59;4988798;28;20634;-66
2022/05/27 05:17:20;;;;;;;2.97;2.67;;;17.60;99.90;;;18.11;nan;101137.34;4993466;28;20629;-65
2022/05/27 05:19:48;;;;;;;2.70;2.50;;;17.60;99.90;;;18.20;nan;101136.47;4993213;28;21184;-65
2022/05/27 05:22:15;;;;;;;2.50;2.37;;;17.60;99.90;;;18.19;nan;101142.72;4994435;28;20665;-66
2022/05/27 05:24:42;;;;;;;3.00;2.47;;;17.60;99.90;;;18.10;nan;101151.53;4994721;28;21138;-68
2022/05/27 05:27:09;;;;;;;4.13;2.73;;;17.50;99.90;;;18.16;nan;101146.50;4994530;28;20630;-65
2022/05/27 05:29:35;;;;;;;3.10;2.63;;;17.60;99.90;;;18.11;nan;101138.16;4992678;28;20657;-66
2022/05/27 05:32:04;;;;;;;4.60;2.90;;;17.60;99.90;;;18.15;nan;101139.53;4992788;28;20678;-66
2022/05/27 05:34:31;;;;;;;5.00;2.87;;;17.60;99.90;;;18.16;nan;101140.38;4993092;28;20638;-64
2022/05/27 05:36:58;;;;;;;3.47;2.33;;;17.60;99.90;;;18.27;nan;101145.47;4956159;28;21174;-68
2022/05/27 05:39:25;;;;;;;3.17;2.97;;;17.70;99.90;;;18.28;nan;101139.19;4986412;28;20665;-66
2022/05/27 05:42:02;;;;;;;3.03;2.33;;;17.70;99.90;;;18.35;nan;101141.09;4986888;28;21203;-66
2022/05/27 05:44:30;;;;;;;6.83;2.80;;;17.80;99.90;;;18.15;nan;101136.91;4982821;28;20641;-67
2022/05/27 05:46:57;;;;;;;5.80;1.73;;;17.60;99.90;;;18.15;nan;101128.97;4991980;28;20634;-67
2022/05/27 05:49:25;;;;;;;6.03;2.90;;;17.70;99.90;;;18.22;nan;101126.56;4974851;28;20665;-67
2022/05/27 05:51:54;;;;;;;2.77;2.57;;;17.70;99.90;;;18.24;nan;101128.09;4949017;28;20666;-67
2022/05/27 05:54:23;;;;;;;4.83;2.50;;;17.80;99.90;;;18.35;nan;101127.91;4956556;28;20715;-66
2022/05/27 05:56:51;;;;;;;2.17;1.90;;;17.80;99.90;;;18.49;nan;101119.50;4967926;28;21210;-66
2022/05/27 05:59:20;;;;;;;2.50;2.40;;;18.00;99.90;;;18.46;nan;101125.06;4993269;28;20649;-66
2022/05/27 06:01:47;;;;;;;2.27;2.17;;;17.90;99.90;;;18.59;nan;101135.28;4973392;28;20653;-67
2022/05/27 06:04:14;;;;;;;2.40;2.30;;;18.00;99.90;;;18.69;nan;101132.56;4973961;28;21202;-66
2022/05/27 06:06:41;;;;;;;2.97;2.77;;;18.10;99.70;;;18.81;nan;101131.34;4968992;28;20618;-66
2022/05/27 06:09:08;;;;;;;2.00;1.90;;;18.30;99.10;;;18.81;nan;101129.53;4975550;28;20662;-66
2022/05/27 06:11:39;;;;;;;2.60;2.40;;;18.30;99.00;;;18.81;nan;101126.06;4976116;28;21262;-66
2022/05/27 06:14:06;;;;;;;3.33;2.20;;;18.30;99.10;;;18.90;nan;101127.81;5009855;28;20633;-66
2022/05/27 06:16:34;;;;;;;3.70;2.17;;;18.30;99.00;;;18.94;nan;101129.16;4974737;28;20664;-65
2022/05/27 06:19:01;;;;;;;2.90;2.40;;;18.40;98.80;;;19.04;nan;101132.56;4991856;28;20634;-69
2022/05/27 06:21:28;;;;;;;2.50;2.17;;;18.50;98.80;;;19.02;nan;101138.00;4990795;28;20715;-66
2022/05/27 06:23:55;;;;;;;2.60;2.40;;;18.50;98.90;;;19.07;nan;101133.09;4992941;28;20630;-68
2022/05/27 06:26:22;;;;;;;2.13;2.03;;;18.50;98.60;;;19.17;nan;101138.28;4991725;28;20646;-67
2022/05/27 06:34:29;;;;;;;3.57;2.80;;;18.70;98.30;;;19.38;nan;101132.72;4989797;28;20626;-66
2022/05/27 06:37:04;;;;;;;2.20;2.00;;;18.80;98.00;;;19.43;nan;101133.06;4998639;28;20630;-65
2022/05/27 06:39:34;;;;;;;2.30;2.20;;;18.80;97.90;;;19.49;nan;101127.97;4991876;28;20658;-66
2022/05/27 06:42:04;;;;;;;3.37;2.33;;;18.90;97.70;;;19.53;nan;101131.16;4974693;28;20634;-69
2022/05/27 06:44:51;;;;;;;2.60;2.50;;;19.00;97.60;;;19.60;nan;101135.66;4989910;28;20745;-66
2022/05/27 06:47:19;;;;;;;1.33;1.23;;;19.00;97.10;;;19.28;nan;101133.59;4993202;28;20618;-67
2022/05/27 06:49:46;;;;;;;2.10;2.00;;;18.90;97.40;;;19.35;nan;101131.19;4981136;28;20657;-67
2022/05/27 06:52:14;;;;;;;2.47;2.27;;;18.80;97.50;;;19.30;nan;101133.44;4991962;28;20674;-67
2022/05/27 06:54:44;;;;;;;2.73;2.53;;;18.70;97.50;;;19.38;nan;101133.50;4972375;28;20737;-64
2022/05/27 06:57:11;;;;;;;2.70;2.50;;;18.80;97.40;;;19.24;nan;101134.06;4990054;28;20630;-67
2022/05/27 06:59:38;;;;;;;4.57;2.40;;;18.80;97.50;;;19.33;nan;101128.69;4968763;28;20658;-67
2022/05/27 07:02:07;;;;;;;2.60;2.40;;;18.70;97.70;;;19.39;nan;101127.25;4991100;28;21023;-66
2022/05/27 07:04:34;;;;;;;1.70;1.70;;;18.80;97.80;;;19.47;nan;101123.81;4988438;28;20643;-64
2022/05/27 07:07:04;;;;;;;2.07;1.83;;;18.90;97.50;;;19.30;nan;101117.56;4973829;28;20631;-65
2022/05/27 07:09:35;;;;;;;1.73;1.63;;;18.80;97.80;;;19.03;nan;101113.22;4971223;28;21382;-65
2022/05/27 07:12:08;;;;;;;1.83;1.73;;;18.50;98.40;;;18.98;nan;101114.66;4970093;28;20670;-67
2022/05/27 07:14:38;;;;;;;2.40;2.27;;;18.50;98.50;;;19.23;nan;101116.50;4970432;28;20638;-65
2022/05/27 07:17:06;;;;;;;2.70;2.37;;;18.70;98.40;;;19.43;nan;101125.94;4990348;28;21167;-64
2022/05/27 07:19:39;;;;;;;2.37;2.17;;;18.90;98.10;;;19.57;nan;101132.50;4983186;28;21300;-66
2022/05/27 07:22:09;;;;;;;2.53;2.33;;;19.10;97.80;;;19.45;nan;101123.13;4990640;28;20622;-65
2022/05/27 07:24:37;;;;;;;2.20;2.10;;;19.10;97.80;;;19.61;nan;101129.41;4987777;28;20646;-64
2022/05/27 07:27:05;;;;;;;2.10;1.97;;;19.10;98.10;;;19.71;nan;101126.63;4973881;28;21285;-67
2022/05/27 07:29:32;;;;;;;2.40;2.30;;;19.20;97.80;;;19.69;nan;101136.53;4989750;28;20724;-65
2022/05/27 07:31:59;;;;;;;3.00;2.80;;;19.20;97.60;;;19.81;nan;101128.16;4990699;28;20692;-65
2022/05/27 07:34:27;;;;;;;3.53;2.37;;;19.30;97.60;;;19.99;nan;101126.28;4987287;28;20630;-64
2022/05/27 07:36:54;;;;;;;1.97;1.87;;;19.50;97.40;;;20.09;nan;101128.78;4978994;28;20626;-66
2022/05/27 07:39:21;;;;;;;2.50;2.10;;;19.60;96.90;;;20.10;nan;101117.22;4986055;28;20672;-67
2022/05/27 07:41:48;;;;;;;2.30;2.20;;;19.60;96.90;;;20.20;nan;101114.44;4978333;28;20611;-72
2022/05/27 07:44:16;;;;;;;2.07;1.97;;;19.70;96.80;;;20.17;nan;101117.41;4973770;28;20639;-67
2022/05/27 07:46:43;;;;;;;2.43;2.20;;;19.70;96.60;;;20.29;nan;101121.44;4954107;28;20639;-67
2022/05/27 07:49:10;;;;;;;2.10;2.00;;;19.70;96.60;;;20.29;nan;101124.09;4970173;28;20655;-66
2022/05/27 07:51:58;;;;;;;1.83;1.73;;;19.70;96.70;;;20.39;nan;101112.38;4977617;28;20647;-67
2022/05/27 07:54:25;;;;;;;2.30;2.20;;;19.90;96.20;;;20.48;nan;101113.22;4989200;28;20634;-65
2022/05/27 07:56:52;;;;;;;1.47;1.37;;;19.90;96.10;;;20.52;nan;101118.03;4972651;28;20626;-66
2022/05/27 07:59:19;;;;;;;1.80;1.70;;;20.00;96.20;;;20.59;nan;101119.03;4991354;28;20650;-65
2022/05/27 08:01:46;;;;;;;4.93;2.07;;;20.00;96.10;;;20.74;nan;101124.53;4990550;28;20649;-66
2022/05/27 08:04:14;;;;;;;1.80;1.70;;;20.20;95.70;;;20.79;nan;101114.25;4990241;28;21461;-66
2022/05/27 08:06:41;;;;;;;6.10;1.73;;;20.30;95.50;;;20.92;nan;101117.25;4970816;28;20638;-66
2022/05/27 08:09:15;;;;;;;2.20;2.10;;;20.40;95.60;;;21.06;nan;101121.91;4971858;28;20748;-68
2022/05/27 08:11:42;;;;;;;2.20;2.00;;;20.50;95.50;;;21.21;nan;101114.94;4974796;28;20658;-69
2022/05/27 08:14:09;;;;;;;2.10;1.90;;;20.70;95.20;;;21.31;nan;101122.75;4986743;28;20635;-66
2022/05/27 08:16:39;;;;;;;2.10;2.00;;;20.80;95.20;;;21.40;nan;101125.22;4970417;28;20627;-67
2022/05/27 08:19:06;;;;;;;3.30;1.70;;;20.90;94.80;;;21.42;nan;101125.88;4969512;28;21032;-67
2022/05/27 08:21:36;;;;;;;1.97;1.87;;;20.90;94.50;;;21.48;nan;101133.19;4982968;28;20637;-66
2022/05/27 08:24:07;;;;;;;1.77;1.67;;;21.00;94.50;;;21.29;nan;101133.53;4998145;28;20654;-66
2022/05/27 08:26:35;;;;;;;2.40;2.23;;;20.80;94.40;;;21.22;nan;101135.19;4989536;28;20614;-67
2022/05/27 08:29:03;;;;;;;1.77;1.67;;;20.60;94.50;;;21.00;nan;101133.16;4986548;28;20749;-66
2022/05/27 08:31:30;;;;;;;2.20;2.00;;;20.40;94.70;;;20.78;nan;101139.13;4972723;28;21259;-67
2022/05/27 08:39:28;;;;;;;1.80;1.70;;;20.20;95.20;;;20.65;nan;101125.50;4987486;28;20677;-68
2022/05/27 08:42:26;;;;;;;2.10;2.00;;;20.10;95.40;;;20.59;nan;101128.81;4988906;28;20638;-67
2022/05/27 08:45:22;;;;;;;1.70;1.60;;;20.00;95.40;;;20.61;nan;101126.84;4987687;28;20638;-65
2022/05/27 08:47:53;;;;;;;1.40;1.30;;;20.00;95.60;;;20.59;nan;101126.19;4992425;28;20684;-66
2022/05/27 08:50:58;;;;;;;2.63;2.47;;;20.00;95.70;;;20.73;nan;101125.53;5000227;28;21063;-67
2022/05/27 08:53:28;;;;;;;3.20;2.07;;;20.10;95.60;;;20.87;nan;101120.41;4972121;28;20680;-68
2022/05/27 08:59:27;;;;;;;2.60;2.50;;;20.60;95.00;;;21.30;nan;101129.88;4955202;28;20658;-65
2022/05/27 09:02:18;;;;;;;5.23;2.57;;;20.80;94.80;;;21.32;nan;101132.34;4953289;28;20754;-65
2022/05/27 09:05:15;;;;;;;3.63;2.33;;;20.80;94.70;;;21.32;nan;101135.00;4987460;28;20657;-67
2022/05/27 09:07:58;;;;;;;2.37;2.17;;;20.80;94.80;;;21.27;nan;101130.22;4986542;28;20669;-66
2022/05/27 09:10:59;;;;;;;2.40;2.20;;;20.80;94.60;;;21.26;nan;101146.31;4984491;28;20630;-65
2022/05/27 09:14:15;;;;;;;2.57;2.47;;;20.70;94.50;;;21.15;nan;101142.16;4943479;28;20633;-66
2022/05/27 09:16:49;;;;;;;2.37;2.27;;;20.60;94.60;;;21.00;nan;101142.97;4919281;29;20668;-67
2022/05/27 09:20:03;;;;;;;2.77;2.57;;;20.40;94.90;;;20.87;nan;101143.44;4926959;29;20656;-66
2022/05/27 09:23:03;;;;;;;2.83;2.70;;;20.30;95.10;;;20.74;nan;101145.75;4988517;28;20629;-65
2022/05/27 09:26:09;;;;;;;3.40;3.10;;;20.10;95.40;;;20.64;nan;101142.41;4968482;28;20618;-66
2022/05/27 09:29:02;;;;;;;2.77;2.57;;;20.00;95.50;;;20.66;nan;101141.25;4988328;28;20669;-65
2022/05/27 09:31:45;;;;;;;3.63;2.90;;;20.10;95.50;;;20.69;nan;101148.06;4972632;28;20669;-64
2022/05/27 09:34:13;;;;;;;4.00;3.20;;;20.20;95.50;;;20.84;nan;101147.25;4991960;28;20630;-66
2022/05/27 09:36:49;;;;;;;3.10;2.90;;;20.30;95.50;;;20.96;nan;101147.75;4986379;28;20693;-64
2022/05/27 09:39:22;;;;;;;1.63;1.53;;;20.40;95.30;;;20.93;nan;101158.72;4961086;28;20666;-65
2022/05/27 09:42:06;;;;;;;2.57;2.37;;;20.40;94.90;;;21.05;nan;101145.97;4978755;28;21215;-65
2022/05/27 09:44:39;;;;;;;1.97;1.87;;;20.50;94.60;;;21.02;nan;101156.91;4980216;28;20646;-70
2022/05/27 09:47:06;;;;;;;2.30;1.97;;;20.50;94.50;;;20.87;nan;101148.72;4992544;28;21213;-64
2022/05/27 09:49:34;;;;;;;2.30;2.20;;;20.30;94.50;;;20.90;nan;101151.06;4991432;28;20642;-67
2022/05/27 09:52:03;;;;;;;2.10;2.00;;;20.40;94.60;;;20.93;nan;101141.97;4957852;28;20662;-66
2022/05/27 09:54:54;;;;;;;2.70;1.87;;;20.50;94.40;;;20.97;nan;101143.28;4977481;28;20618;-65
2022/05/27 09:57:26;;;;;;;2.23;2.00;;;20.50;94.30;;;20.93;nan;101142.81;4972749;28;21253;-65
2022/05/27 09:59:59;;;;;;;2.30;2.20;;;20.50;94.30;;;21.10;nan;101133.03;4957046;28;21011;-65
2022/05/27 10:02:38;;;;;;;2.50;2.40;;;20.50;94.40;;;21.14;nan;101137.84;4966730;28;20626;-67
2022/05/27 10:05:33;;;;;;;3.40;2.33;;;20.60;94.50;;;21.19;nan;101142.69;4958999;28;20642;-66
2022/05/27 10:10:35;;;;;;;1.77;1.67;;;21.20;94.00;;;22.39;nan;101133.56;5012438;28;21096;-69
2022/05/27 10:13:30;;;;;;;2.40;2.30;;;22.00;92.70;;;22.62;nan;101134.44;5031724;28;20660;-67
2022/05/27 10:16:21;;;;;;;2.20;2.10;;;22.30;92.00;;;22.84;nan;101130.13;5026728;28;20644;-66
2022/05/27 10:19:04;;;;;;;2.60;2.43;;;22.40;91.60;;;23.41;nan;101131.34;5019970;28;20657;-66
2022/05/27 10:21:32;;;;;;;8.27;2.07;;;23.00;91.00;;;23.62;nan;101136.78;5010695;28;20637;-67
2022/05/27 10:24:19;;;;;;;2.23;2.03;;;23.30;90.40;;;23.45;nan;101137.97;5009704;28;20634;-67
2022/05/27 10:27:09;;;;;;;2.17;2.07;;;23.10;90.10;;;23.02;nan;101146.66;4992259;28;20633;-67
2022/05/27 10:29:54;;;;;;;2.20;2.10;;;22.70;90.70;;;22.61;nan;101135.47;5009413;28;20657;-67
2022/05/27 10:32:50;;;;;;;3.70;2.17;;;22.20;91.10;;;22.47;nan;101135.34;5010280;28;20665;-68
2022/05/27 10:35:20;;;;;;;1.97;1.87;;;21.90;91.60;;;22.24;nan;101136.13;5010574;28;20737;-66
2022/05/27 10:38:26;;;;;;;6.43;2.70;;;21.70;92.00;;;22.03;nan;101135.03;5011241;28;20687;-67
2022/05/27 10:41:19;;;;;;;2.50;1.80;;;21.60;92.20;;;22.00;nan;101122.94;5010981;28;20723;-66
2022/05/27 10:44:34;;;;;;;1.93;1.83;;;21.50;92.20;;;22.10;nan;101125.41;5010863;28;20634;-67
2022/05/27 10:47:01;;;;;;;1.83;1.73;;;21.50;92.30;;;22.25;nan;101128.97;5002466;28;20645;-66
2022/05/27 10:49:46;;;;;;;2.70;2.50;;;21.70;92.30;;;22.24;nan;101135.28;5010641;28;20654;-67
2022/05/27 10:52:40;;;;;;;2.80;2.60;;;21.70;92.20;;;22.22;nan;101134.63;5012119;28;20668;-66
2022/05/27 10:55:23;;;;;;;2.30;2.20;;;21.70;92.30;;;22.17;nan;101132.50;5010219;28;20814;-66
2022/05/27 11:04:32;;;;;;;4.73;1.60;;;21.40;92.60;;;21.85;nan;101127.28;5010040;28;20991;-69
2022/05/27 11:07:18;;;;;;;1.70;1.70;;;21.30;92.90;;;21.77;nan;101132.59;4986736;28;20648;-69
2022/05/27 11:10:19;;;;;;;1.93;1.80;;;21.20;93.00;;;21.82;nan;101125.00;5008512;28;21072;-67
2022/05/27 11:16:51;;;;;;;1.33;1.33;;;21.20;93.10;;;21.57;nan;101128.69;4988481;28;20677;-68
2022/05/27 11:20:05;;;;;;;1.27;1.17;;;21.10;93.10;;;21.52;nan;101131.84;4992465;28;20661;-69
2022/05/27 11:22:53;;;;;;;1.50;1.40;;;21.00;93.20;;;21.53;nan;101130.00;4993827;28;21189;-67
2022/05/27 11:25:46;;;;;;;1.40;1.40;;;21.00;93.10;;;21.39;nan;101128.88;4992405;28;20633;-67
2022/05/27 11:28:18;;;;;;;1.13;0.67;;;20.90;93.20;;;21.31;nan;101123.59;4992898;28;20644;-68
2022/05/27 11:31:25;;;;;;;1.40;1.07;;;20.90;93.20;;;21.51;nan;101135.50;4992944;28;20645;-67
2022/05/27 11:34:05;;;;;;;0.73;0.73;;;21.00;93.30;;;21.56;nan;101135.81;5000645;28;20673;-69